METAR Analyzer

一覧表示

Hello, Guest. (Login)

YSSY/SYD  -  シドニー・キングスフォード・スミス

観測日時
2021-01-27 15:30 (UTC) (89分前)
気温
20
露点
19
湿数
1
相対湿度
94%
QNH
1018hPa
推定現地気圧
1017.3hPa
推定海面気圧
1018.0hPa
体感温度
11.1
(無風時)
21.4
HI
20.5
気温前日比
-4
体感温度前日比
-5.7
HI前日比
-4.3
水平視程
>10000m
鉛直視程
データなし
雲底高度
1600ft AGL
V/I
VMC (VFR)
RVR
No RVR data
卓越風
16kt from 150°
ガスト
No gust
降水
しゅう雨性の (周辺において)
その他の天気
報告なし
少しの雲 @ 1000ft AGL / 隙間のある雲 @ 1600ft AGL / 隙間のある雲 @ 3500ft AGL

YSSY 271530Z 15016KT 9999 VCSH FEW010 BKN016 BKN035 20/19 Q1018

NZAA/AKL  -  Auckland

観測日時
2021-01-27 16:00 (UTC) (59分前)
気温
19
露点
17
湿数
2
相対湿度
88.2%
QNH
1012hPa
推定現地気圧
1011.2hPa
推定海面気圧
1012.0hPa
体感温度
13.8
(無風時)
20.3
HI
19.3
気温前日比
+1
体感温度前日比
+1.2
HI前日比
+1
水平視程
>10000m / 一時 7000m
鉛直視程
データなし
雲底高度
1700ft AGL / 一時 1200ft AGL
V/I
VMC (VFR)
RVR
No RVR data
卓越風
4kt from 270°
ガスト
No gust
降水
報告なし
降水 (一時)
中程度の雨・霧雨
その他の天気
報告なし
少しの雲 @ 1200ft AGL / 全天を覆う雲 @ 1700ft AGL

NZAA 271600Z AUTO 27004KT 9999 FEW012/// OVC017/// 19/17 Q1012 TEMPO 7000 RADZ BKN012

NZWN/WLG  -  Wellington

観測日時
2021-01-27 16:00 (UTC) (59分前)
気温
17
露点
14
湿数
3
相対湿度
82.5%
QNH
1006hPa
推定現地気圧
1004.4hPa
推定海面気圧
1005.9hPa
体感温度
5.6
(無風時)
18.5
HI
16.9
気温前日比
-1
体感温度前日比
-2.2
HI前日比
-1.3
水平視程
>10000m
鉛直視程
データなし
雲底高度
1900ft AGL
V/I
VMC (VFR)
RVR
No RVR data
卓越風
24kt from 360°
ガスト
No gust
降水
報告なし
その他の天気
報告なし
隙間のある雲 @ 1900ft AGL

NZWN 271600Z AUTO 36024KT 9999 BKN019/// 17/14 Q1006 NOSIG

NZCH/CHC  -  Christchurch

観測日時
2021-01-27 16:00 (UTC) (59分前)
気温
15
露点
13
湿数
2
相対湿度
87.8%
QNH
1002hPa
推定現地気圧
997.6hPa
推定海面気圧
1002.0hPa
体感温度
4.5
(無風時)
16.9
HI
14.8
気温前日比
-1
体感温度前日比
-9.2
HI前日比
-0.5
水平視程
>10000m
鉛直視程
データなし
雲底高度
No dense clouds / 一時 1400ft AGL
V/I
VMC (VFR)
RVR
No RVR data
卓越風
13kt from 240°
ガスト
No gust
降水
報告なし
その他の天気
報告なし
目立った雲なし

NZCH 271600Z AUTO 24013KT 9999 NCD 15/13 Q1002 TEMPO BKN014

8msec